Time;durP1;ratioP1;P1;durP2;ratioP2;P2;SDS_P1;SDS_P2;PMS_P1;PMS_P2;Temp;Humidity;BMP_temperature;BMP_pressure;BME280_temperature;BME280_humidity;BME280_pressure;Samples;Min_cycle;Max_cycle;Signal;HPM_P1;HPM_P2
2021/05/17 00:01:54;;;;;;;0.80;0.63;;;22.60;40.40;;;;;;5015166;28;20121;-50
2021/05/17 00:04:29;;;;;;;1.02;0.70;;;22.60;40.40;;;;;;5012574;28;20030;-48
2021/05/17 00:06:56;;;;;;;1.20;0.60;;;22.60;40.40;;;;;;5014497;28;20036;-52
2021/05/17 00:09:23;;;;;;;0.77;0.60;;;22.60;40.40;;;;;;5011843;28;20149;-50
2021/05/17 00:11:49;;;;;;;1.00;0.80;;;22.60;40.40;;;;;;5010112;28;20364;-55
2021/05/17 00:14:15;;;;;;;1.15;0.60;;;22.60;40.50;;;;;;5010500;28;20038;-52
2021/05/17 00:16:41;;;;;;;0.77;0.60;;;22.50;40.40;;;;;;5011987;28;20535;-52
2021/05/17 00:19:07;;;;;;;0.63;0.50;;;22.50;40.40;;;;;;5012526;28;20033;-54
2021/05/17 00:21:33;;;;;;;1.13;0.60;;;22.50;40.40;;;;;;5011158;28;20061;-50
2021/05/17 00:23:59;;;;;;;0.73;0.60;;;22.50;40.40;;;;;;5009837;28;20038;-52
2021/05/17 00:26:25;;;;;;;0.88;0.60;;;22.50;40.40;;;;;;5008870;28;20030;-55
2021/05/17 00:28:51;;;;;;;0.52;0.50;;;22.50;40.40;;;;;;5013039;28;20445;-52
2021/05/17 00:31:17;;;;;;;0.82;0.60;;;22.50;40.40;;;;;;5012397;28;20036;-51
2021/05/17 00:33:43;;;;;;;0.77;0.60;;;22.50;40.50;;;;;;5012644;28;20026;-54
2021/05/17 00:36:10;;;;;;;0.90;0.50;;;22.50;40.50;;;;;;5014118;28;20528;-53
2021/05/17 00:38:36;;;;;;;0.60;0.50;;;22.50;40.50;;;;;;5009234;28;20040;-52
2021/05/17 00:41:02;;;;;;;0.90;0.50;;;22.50;40.50;;;;;;5011067;28;20373;-52
2021/05/17 00:43:32;;;;;;;0.43;0.40;;;22.40;40.40;;;;;;5011178;28;20428;-48
2021/05/17 00:45:58;;;;;;;1.10;0.57;;;22.50;40.50;;;;;;5011173;28;20468;-53
2021/05/17 00:48:24;;;;;;;0.60;0.40;;;22.40;40.40;;;;;;5011701;28;20030;-54
2021/05/17 00:50:50;;;;;;;1.08;0.47;;;22.40;40.40;;;;;;5025584;28;20121;-52
2021/05/17 00:53:17;;;;;;;1.00;0.57;;;22.40;40.50;;;;;;5011217;28;20349;-55
2021/05/17 00:55:43;;;;;;;0.98;0.40;;;22.40;40.50;;;;;;5011767;28;20095;-48
2021/05/17 00:58:11;;;;;;;0.52;0.43;;;22.40;40.50;;;;;;5010387;28;20026;-53
2021/05/17 01:00:38;;;;;;;0.57;0.40;;;22.40;40.50;;;;;;5010594;28;20083;-48
2021/05/17 01:03:04;;;;;;;1.13;0.60;;;22.40;40.50;;;;;;5008014;28;20155;-52
2021/05/17 01:05:42;;;;;;;1.63;0.90;;;22.40;40.60;;;;;;5003067;28;20030;-53
2021/05/17 01:08:14;;;;;;;1.55;0.80;;;22.40;40.60;;;;;;5009453;28;20038;-52
2021/05/17 01:10:45;;;;;;;1.05;0.60;;;22.40;40.60;;;;;;5005940;28;20033;-54
2021/05/17 01:13:12;;;;;;;0.65;0.40;;;22.40;40.60;;;;;;5009414;28;20038;-50
2021/05/17 01:15:40;;;;;;;0.88;0.47;;;22.40;40.70;;;;;;5009814;28;20099;-54
2021/05/17 01:18:06;;;;;;;1.33;1.00;;;22.40;40.70;;;;;;5007492;28;20488;-54
2021/05/17 01:20:33;;;;;;;0.85;0.52;;;22.40;40.80;;;;;;5010621;28;20069;-54
2021/05/17 01:25:51;;;;;;;1.13;0.52;;;22.40;40.80;;;;;;5011676;28;20061;-50
2021/05/17 01:28:25;;;;;;;1.05;0.60;;;22.30;40.80;;;;;;5011914;28;20048;-49
2021/05/17 01:31:00;;;;;;;0.70;0.50;;;22.30;40.80;;;;;;5010555;28;20029;-53
2021/05/17 01:33:31;;;;;;;0.70;0.60;;;22.30;40.80;;;;;;5008896;28;20026;-52
2021/05/17 01:36:00;;;;;;;1.05;0.63;;;22.30;40.80;;;;;;5011411;28;20025;-53
2021/05/17 01:38:27;;;;;;;1.20;0.80;;;22.30;40.80;;;;;;5010555;28;20036;-52
2021/05/17 01:40:54;;;;;;;0.90;0.57;;;22.30;40.80;;;;;;5012304;28;20099;-54
2021/05/17 01:43:22;;;;;;;2.20;0.40;;;22.30;40.90;;;;;;5008299;28;20041;-52
2021/05/17 01:45:49;;;;;;;1.15;0.55;;;22.30;40.90;;;;;;5007328;28;20037;-51
2021/05/17 01:48:23;;;;;;;1.10;0.60;;;22.30;40.90;;;;;;5007770;28;20033;-54
2021/05/17 01:50:49;;;;;;;1.13;0.60;;;22.30;40.90;;;;;;5006499;28;20061;-54
2021/05/17 01:53:17;;;;;;;0.80;0.70;;;22.30;40.90;;;;;;5010319;28;20038;-57
2021/05/17 01:55:43;;;;;;;0.88;0.60;;;22.30;40.90;;;;;;5010170;28;20053;-51
2021/05/17 01:58:22;;;;;;;0.85;0.50;;;22.30;40.90;;;;;;5010583;28;20025;-51
2021/05/17 02:00:52;;;;;;;0.43;0.38;;;22.30;40.90;;;;;;5005137;28;20041;-55
2021/05/17 02:03:18;;;;;;;0.50;0.40;;;22.30;40.90;;;;;;5009583;28;20104;-55
2021/05/17 02:05:46;;;;;;;1.48;0.60;;;22.30;40.90;;;;;;5010420;28;20077;-53
2021/05/17 02:08:15;;;;;;;0.82;0.50;;;22.30;41.00;;;;;;5007267;28;20038;-49
2021/05/17 02:10:45;;;;;;;1.15;0.60;;;22.20;40.90;;;;;;5011294;28;20377;-54
2021/05/17 02:13:17;;;;;;;1.02;0.40;;;22.20;40.90;;;;;;5007078;28;20508;-50
2021/05/17 02:15:45;;;;;;;0.95;0.47;;;22.20;40.90;;;;;;5011000;28;20045;-50
2021/05/17 02:18:11;;;;;;;0.90;0.60;;;22.20;40.90;;;;;;5007712;28;20045;-52
2021/05/17 02:20:40;;;;;;;1.13;0.50;;;22.20;41.00;;;;;;5013810;28;20111;-51
2021/05/17 02:23:11;;;;;;;0.60;0.40;;;22.20;41.00;;;;;;5009377;28;20076;-50
2021/05/17 02:25:48;;;;;;;1.33;0.43;;;22.20;41.10;;;;;;5010691;28;20026;-52
2021/05/17 02:28:16;;;;;;;0.47;0.40;;;22.20;41.00;;;;;;5007762;28;20037;-53
2021/05/17 02:30:43;;;;;;;0.82;0.60;;;22.20;41.00;;;;;;5009003;28;20026;-52
2021/05/17 02:33:11;;;;;;;0.52;0.40;;;22.20;41.10;;;;;;5010417;28;20045;-53
2021/05/17 02:35:39;;;;;;;0.68;0.40;;;22.20;41.10;;;;;;5012547;28;20072;-49
2021/05/17 02:38:07;;;;;;;0.40;0.40;;;22.20;41.10;;;;;;4997415;28;20029;-55
2021/05/17 02:40:35;;;;;;;0.70;0.50;;;22.20;41.10;;;;;;5008603;28;20049;-55
2021/05/17 02:43:10;;;;;;;2.05;0.50;;;22.20;41.10;;;;;;5009584;28;20117;-52
2021/05/17 02:45:45;;;;;;;1.02;0.60;;;22.20;41.10;;;;;;5006837;28;20112;-52
2021/05/17 02:48:14;;;;;;;0.60;0.40;;;22.20;41.10;;;;;;5006230;28;20152;-50
2021/05/17 02:50:43;;;;;;;0.63;0.35;;;22.20;41.10;;;;;;5011879;28;20044;-53
2021/05/17 02:53:35;;;;;;;0.77;0.40;;;22.20;41.20;;;;;;5007547;28;20030;-49
2021/05/17 02:56:09;;;;;;;0.50;0.40;;;22.20;41.10;;;;;;5009576;28;20041;-51
2021/05/17 02:58:39;;;;;;;0.80;0.60;;;22.10;41.20;;;;;;5008839;28;20092;-51
2021/05/17 03:01:20;;;;;;;0.55;0.40;;;22.20;41.30;;;;;;5010633;28;21977;-55
2021/05/17 03:03:48;;;;;;;0.95;0.60;;;22.20;41.30;;;;;;4998941;28;20336;-50
2021/05/17 03:06:30;;;;;;;0.50;0.47;;;22.20;41.30;;;;;;5007464;28;20021;-52
2021/05/17 03:09:05;;;;;;;0.80;0.40;;;22.10;41.30;;;;;;5008008;28;20030;-51
2021/05/17 03:11:42;;;;;;;0.90;0.40;;;22.10;41.30;;;;;;5008454;28;20044;-51
2021/05/17 03:14:12;;;;;;;0.57;0.30;;;22.10;41.30;;;;;;5007341;28;20021;-51
2021/05/17 03:16:39;;;;;;;1.05;0.55;;;22.10;41.30;;;;;;5007964;28;20050;-55
2021/05/17 03:19:07;;;;;;;0.50;0.30;;;22.10;41.30;;;;;;5008029;28;20018;-52
2021/05/17 03:21:34;;;;;;;0.85;0.50;;;22.10;41.30;;;;;;5009950;28;20044;-51
2021/05/17 03:24:00;;;;;;;0.63;0.40;;;22.10;41.40;;;;;;5007235;28;20064;-53
2021/05/17 03:26:27;;;;;;;0.85;0.50;;;22.10;41.30;;;;;;5010226;28;20459;-49
2021/05/17 03:28:54;;;;;;;0.50;0.43;;;22.10;41.30;;;;;;5008404;28;20362;-52
2021/05/17 03:31:20;;;;;;;1.58;0.70;;;22.10;41.40;;;;;;5012051;28;20026;-48
2021/05/17 03:33:46;;;;;;;1.58;0.47;;;22.10;41.40;;;;;;5010060;28;20054;-52
2021/05/17 03:36:12;;;;;;;0.50;0.40;;;22.10;41.40;;;;;;5009198;28;20045;-53
2021/05/17 03:38:38;;;;;;;1.38;0.57;;;22.10;41.40;;;;;;5005876;28;20025;-55
2021/05/17 03:41:07;;;;;;;1.23;0.52;;;22.10;41.40;;;;;;5007584;28;20052;-52
2021/05/17 03:43:34;;;;;;;0.73;0.32;;;22.10;41.40;;;;;;5010033;28;20457;-51
2021/05/17 03:45:59;;;;;;;0.85;0.50;;;22.10;41.40;;;;;;5013307;28;20176;-52
2021/05/17 03:48:25;;;;;;;1.48;0.50;;;22.10;41.40;;;;;;5017664;28;20120;-53
2021/05/17 03:50:51;;;;;;;0.45;0.38;;;22.00;41.40;;;;;;5013610;28;20084;-51
2021/05/17 03:53:17;;;;;;;0.82;0.50;;;22.00;41.40;;;;;;5012628;28;20030;-50
2021/05/17 03:55:44;;;;;;;1.35;0.68;;;22.00;41.40;;;;;;5008831;28;20453;-53
2021/05/17 03:58:09;;;;;;;0.80;0.52;;;22.10;41.50;;;;;;5011141;28;20413;-47
2021/05/17 04:00:35;;;;;;;0.80;0.55;;;22.00;41.50;;;;;;5014062;28;20049;-56
2021/05/17 04:03:05;;;;;;;0.75;0.50;;;22.00;41.50;;;;;;5013284;28;20053;-53
2021/05/17 04:05:36;;;;;;;0.70;0.47;;;22.00;41.50;;;;;;5010801;28;20109;-49
2021/05/17 04:08:26;;;;;;;0.50;0.43;;;22.00;41.50;;;;;;5009193;28;20029;-48
2021/05/17 04:13:36;;;;;;;1.63;0.70;;;22.00;41.60;;;;;;5011817;28;20105;-52
2021/05/17 04:16:02;;;;;;;0.88;0.60;;;22.00;41.60;;;;;;5011776;28;20129;-51
2021/05/17 04:18:28;;;;;;;0.88;0.40;;;22.00;41.60;;;;;;5011856;28;20053;-51
2021/05/17 04:20:54;;;;;;;0.47;0.40;;;22.00;41.60;;;;;;5012245;28;20030;-49
2021/05/17 04:23:25;;;;;;;0.43;0.40;;;22.00;41.60;;;;;;5013504;28;20188;-51
2021/05/17 04:25:51;;;;;;;1.35;0.60;;;22.00;41.70;;;;;;5014098;28;20088;-51
2021/05/17 04:28:18;;;;;;;0.73;0.40;;;22.00;41.70;;;;;;5013976;28;20342;-53
2021/05/17 04:30:44;;;;;;;0.98;0.77;;;22.00;41.70;;;;;;5014477;28;20037;-54
2021/05/17 04:33:10;;;;;;;0.90;0.70;;;22.00;41.70;;;;;;5014865;28;20021;-49
2021/05/17 04:35:36;;;;;;;1.30;0.60;;;22.00;41.80;;;;;;5014600;28;20045;-50
2021/05/17 04:38:02;;;;;;;0.95;0.57;;;22.00;41.70;;;;;;5015918;28;20164;-50
2021/05/17 04:40:28;;;;;;;1.42;0.75;;;22.00;41.70;;;;;;5010133;28;20045;-47
2021/05/17 04:42:54;;;;;;;1.27;0.70;;;22.00;41.80;;;;;;5008088;28;20034;-51
2021/05/17 04:45:23;;;;;;;1.00;0.65;;;22.00;41.80;;;;;;5002553;28;20057;-50
2021/05/17 04:47:49;;;;;;;0.93;0.68;;;22.00;41.80;;;;;;5014934;28;20112;-54
2021/05/17 04:50:15;;;;;;;0.90;0.50;;;22.00;41.80;;;;;;5013059;28;20034;-48
2021/05/17 04:52:41;;;;;;;0.63;0.50;;;22.00;41.90;;;;;;5012945;28;20045;-51
2021/05/17 04:55:07;;;;;;;0.85;0.68;;;22.00;41.90;;;;;;5010598;28;20065;-49
2021/05/17 04:57:33;;;;;;;1.02;0.60;;;21.90;41.90;;;;;;5014456;28;20322;-49
2021/05/17 04:59:59;;;;;;;1.10;0.50;;;22.00;42.00;;;;;;5013310;28;20046;-48
2021/05/17 05:02:25;;;;;;;0.93;0.50;;;22.00;42.00;;;;;;5013944;28;20034;-49
2021/05/17 05:04:51;;;;;;;1.08;0.47;;;21.90;42.60;;;;;;5014710;28;20025;-51
2021/05/17 05:07:19;;;;;;;0.63;0.50;;;22.00;42.10;;;;;;5011193;28;20029;-51
2021/05/17 05:09:44;;;;;;;0.85;0.55;;;22.00;42.10;;;;;;5012920;28;20397;-52
2021/05/17 05:12:10;;;;;;;1.17;0.50;;;21.90;42.10;;;;;;5012730;28;20033;-49
2021/05/17 05:14:36;;;;;;;0.70;0.50;;;22.00;42.20;;;;;;5012836;28;20341;-52
2021/05/17 05:17:02;;;;;;;1.35;0.70;;;22.00;42.20;;;;;;5008796;28;20046;-51
2021/05/17 05:19:28;;;;;;;1.23;0.60;;;22.00;42.20;;;;;;5012403;28;20472;-53
2021/05/17 05:21:54;;;;;;;0.85;0.50;;;22.00;42.20;;;;;;5012829;28;20108;-49
2021/05/17 05:24:19;;;;;;;1.10;0.40;;;22.00;42.30;;;;;;5011096;28;20637;-54
2021/05/17 05:26:54;;;;;;;1.23;0.50;;;22.00;42.30;;;;;;5012345;28;20026;-53
2021/05/17 05:29:36;;;;;;;0.30;0.30;;;22.00;42.30;;;;;;5004744;28;20042;-50
2021/05/17 05:32:20;;;;;;;0.93;0.45;;;22.00;42.30;;;;;;5012975;28;20044;-50
2021/05/17 05:34:47;;;;;;;0.65;0.38;;;21.90;42.30;;;;;;5002295;28;20034;-49
2021/05/17 05:37:13;;;;;;;0.95;0.57;;;21.90;42.30;;;;;;5010018;28;20030;-48
2021/05/17 05:39:39;;;;;;;1.30;0.50;;;21.90;42.30;;;;;;5013410;28;20033;-50
2021/05/17 05:42:06;;;;;;;1.05;0.60;;;21.90;42.30;;;;;;5010912;28;20464;-52
2021/05/17 05:44:33;;;;;;;1.15;0.40;;;21.90;42.30;;;;;;5013809;28;20418;-47
2021/05/17 05:46:58;;;;;;;0.88;0.40;;;22.00;42.40;;;;;;5011644;28;20041;-53
2021/05/17 05:49:24;;;;;;;0.55;0.50;;;21.90;42.40;;;;;;5011512;28;20092;-49
2021/05/17 05:51:50;;;;;;;1.02;0.60;;;22.00;42.40;;;;;;5009314;28;20038;-53
2021/05/17 05:54:17;;;;;;;0.50;0.50;;;21.90;42.40;;;;;;5012629;28;20495;-47
2021/05/17 05:56:43;;;;;;;0.75;0.40;;;21.90;42.50;;;;;;5014447;28;20104;-48
2021/05/17 05:59:08;;;;;;;0.40;0.40;;;21.90;42.50;;;;;;5011928;28;20053;-52
2021/05/17 06:01:34;;;;;;;0.98;0.57;;;21.90;42.50;;;;;;5013037;28;20116;-51
2021/05/17 06:04:00;;;;;;;1.98;0.50;;;21.90;42.50;;;;;;5010831;28;20030;-54
2021/05/17 06:06:26;;;;;;;1.50;0.52;;;21.90;42.50;;;;;;5010443;28;20674;-53
2021/05/17 06:08:52;;;;;;;1.15;0.60;;;21.90;42.60;;;;;;5009302;28;21278;-48
2021/05/17 06:11:18;;;;;;;0.90;0.60;;;21.90;42.60;;;;;;5011556;28;20041;-49
2021/05/17 06:13:46;;;;;;;0.40;0.40;;;21.90;42.60;;;;;;5008327;28;20028;-49
2021/05/17 06:16:12;;;;;;;1.05;0.52;;;21.90;42.60;;;;;;5013884;28;20038;-50
2021/05/17 06:18:38;;;;;;;0.85;0.50;;;21.90;42.60;;;;;;5010491;28;20128;-47
2021/05/17 06:21:04;;;;;;;0.30;0.30;;;21.90;42.70;;;;;;5014071;28;20124;-54
2021/05/17 06:23:30;;;;;;;1.15;0.55;;;21.90;42.70;;;;;;5009499;28;20030;-49
2021/05/17 06:25:57;;;;;;;0.73;0.30;;;21.90;42.70;;;;;;5013184;28;20351;-49
2021/05/17 06:28:24;;;;;;;0.80;0.40;;;21.90;42.70;;;;;;5009452;28;20069;-50
2021/05/17 06:30:56;;;;;;;1.42;0.50;;;21.90;42.80;;;;;;5007200;28;20395;-49
2021/05/17 06:33:22;;;;;;;1.17;0.40;;;21.90;42.70;;;;;;5012197;28;20104;-55
2021/05/17 06:35:55;;;;;;;1.25;0.57;;;21.90;42.80;;;;;;5011082;28;20030;-53
2021/05/17 06:38:21;;;;;;;1.00;0.50;;;21.90;42.80;;;;;;5009986;28;20045;-50
2021/05/17 06:40:47;;;;;;;1.17;0.73;;;21.90;42.80;;;;;;5011071;28;20049;-49
2021/05/17 06:43:14;;;;;;;1.20;0.60;;;21.90;42.80;;;;;;5011232;28;20469;-48
2021/05/17 06:45:40;;;;;;;1.60;0.52;;;21.90;42.90;;;;;;5011540;28;20046;-55
2021/05/17 06:48:07;;;;;;;0.70;0.43;;;21.90;42.90;;;;;;5010038;28;20022;-55
2021/05/17 06:50:33;;;;;;;1.08;0.30;;;21.90;42.90;;;;;;5002747;28;20369;-58
2021/05/17 06:52:59;;;;;;;1.13;0.40;;;21.90;43.00;;;;;;5013083;28;20029;-55
2021/05/17 06:55:55;;;;;;;2.78;0.60;;;21.90;43.00;;;;;;5007371;28;20053;-58
2021/05/17 06:58:28;;;;;;;0.68;0.32;;;22.00;43.10;;;;;;5009734;28;20113;-50
2021/05/17 07:00:54;;;;;;;0.77;0.50;;;22.00;43.00;;;;;;5012009;28;20081;-54
2021/05/17 07:03:22;;;;;;;1.42;0.52;;;22.10;43.10;;;;;;5014378;28;20041;-51
2021/05/17 07:05:49;;;;;;;1.40;0.50;;;22.10;42.90;;;;;;5009102;28;20041;-57
2021/05/17 07:13:27;;;;;;;0.45;0.30;;;22.20;42.80;;;;;;5014595;28;20053;-55
2021/05/17 07:15:53;;;;;;;1.10;0.47;;;22.20;42.70;;;;;;5014042;28;20029;-58
2021/05/17 07:18:19;;;;;;;1.00;0.50;;;22.30;42.80;;;;;;5013615;28;20038;-58
2021/05/17 07:26:03;;;;;;;1.65;0.60;;;22.40;42.90;;;;;;5016002;28;20433;-52
2021/05/17 07:28:29;;;;;;;0.80;0.47;;;22.40;42.80;;;;;;5014574;28;20128;-54
2021/05/17 07:30:56;;;;;;;0.68;0.40;;;22.40;42.80;;;;;;5014652;28;20113;-49
2021/05/17 07:33:21;;;;;;;0.35;0.30;;;22.50;42.70;;;;;;5015589;28;20488;-51
2021/05/17 07:35:47;;;;;;;0.85;0.40;;;22.50;42.70;;;;;;5015801;28;20025;-54
2021/05/17 07:38:13;;;;;;;0.70;0.43;;;22.50;42.60;;;;;;5014897;28;20080;-54
2021/05/17 07:40:39;;;;;;;1.90;0.50;;;22.50;42.60;;;;;;5016008;28;20041;-52
2021/05/17 07:43:05;;;;;;;0.80;0.45;;;22.60;42.60;;;;;;5014164;28;20038;-53
2021/05/17 07:45:31;;;;;;;1.42;0.60;;;22.60;42.50;;;;;;5014382;28;20044;-55
2021/05/17 07:47:57;;;;;;;1.20;0.50;;;22.60;42.50;;;;;;5015337;28;20034;-58
2021/05/17 07:50:23;;;;;;;1.38;0.50;;;22.60;42.40;;;;;;5015477;28;20084;-54
2021/05/17 07:52:49;;;;;;;0.95;0.50;;;22.60;42.30;;;;;;5015837;28;20042;-53
2021/05/17 07:55:20;;;;;;;1.48;0.50;;;22.60;42.30;;;;;;5014298;28;20037;-56
2021/05/17 07:57:46;;;;;;;0.75;0.50;;;22.60;42.20;;;;;;5015203;28;20418;-55
2021/05/17 08:00:13;;;;;;;0.50;0.50;;;22.60;42.20;;;;;;5014757;28;20450;-57
2021/05/17 08:02:39;;;;;;;1.35;0.52;;;22.60;42.20;;;;;;5014557;28;20142;-54
2021/05/17 08:05:06;;;;;;;1.05;0.47;;;22.60;42.10;;;;;;5015419;28;20022;-52
2021/05/17 08:07:33;;;;;;;1.13;0.60;;;22.70;42.80;;;;;;5012848;28;20124;-57
2021/05/17 08:09:59;;;;;;;1.50;0.65;;;22.70;42.10;;;;;;5014197;28;20037;-54
2021/05/17 08:12:25;;;;;;;1.08;0.50;;;22.70;42.00;;;;;;5014234;28;20034;-58
2021/05/17 08:14:51;;;;;;;1.13;0.50;;;22.70;42.00;;;;;;5008274;28;20116;-57
2021/05/17 08:17:17;;;;;;;0.65;0.40;;;22.70;42.00;;;;;;5014193;28;20042;-54
2021/05/17 08:19:43;;;;;;;1.00;0.50;;;22.70;42.00;;;;;;5014043;28;20049;-56
2021/05/17 08:22:08;;;;;;;1.25;0.50;;;22.70;41.90;;;;;;5013751;28;20034;-53
2021/05/17 08:24:34;;;;;;;1.42;0.40;;;22.80;41.80;;;;;;5014398;28;20029;-55
2021/05/17 08:27:00;;;;;;;0.80;0.50;;;22.80;41.80;;;;;;5014303;28;20038;-51
2021/05/17 08:29:32;;;;;;;1.77;0.70;;;22.90;41.70;;;;;;5014711;28;20021;-57
2021/05/17 08:31:58;;;;;;;1.15;0.50;;;23.00;41.60;;;;;;5012719;28;20030;-56
2021/05/17 08:34:24;;;;;;;1.00;0.60;;;23.10;41.50;;;;;;5014336;28;20087;-51
2021/05/17 08:36:50;;;;;;;1.23;0.50;;;23.20;41.40;;;;;;5015194;28;20426;-51
2021/05/17 08:39:15;;;;;;;1.30;0.45;;;23.20;41.30;;;;;;5015099;28;20390;-57
2021/05/17 08:41:41;;;;;;;1.17;0.60;;;23.30;41.20;;;;;;5013974;28;20065;-55
2021/05/17 08:44:07;;;;;;;0.80;0.40;;;23.40;41.10;;;;;;5012911;28;20106;-59
2021/05/17 08:46:33;;;;;;;0.63;0.40;;;23.50;41.00;;;;;;5014172;28;20045;-63
2021/05/17 08:49:00;;;;;;;1.98;0.63;;;23.60;40.90;;;;;;5014476;28;20038;-61
2021/05/17 08:51:33;;;;;;;0.95;0.40;;;23.70;40.90;;;;;;5012515;28;20105;-60
2021/05/17 08:54:02;;;;;;;0.47;0.40;;;23.80;40.80;;;;;;5013520;28;20048;-60
2021/05/17 08:56:28;;;;;;;0.82;0.40;;;23.90;40.80;;;;;;5013243;28;20034;-62
2021/05/17 08:58:56;;;;;;;0.98;0.47;;;24.00;40.70;;;;;;5014055;28;20026;-62
2021/05/17 09:01:22;;;;;;;1.05;0.30;;;24.00;40.60;;;;;;5012904;28;20525;-60
2021/05/17 09:03:55;;;;;;;1.15;0.50;;;24.10;40.50;;;;;;5013341;28;20025;-60
2021/05/17 09:06:23;;;;;;;1.33;0.50;;;24.20;40.50;;;;;;5011989;28;20121;-61
2021/05/17 09:08:49;;;;;;;0.93;0.40;;;24.30;40.40;;;;;;5013053;28;20064;-57
2021/05/17 09:11:30;;;;;;;1.23;0.40;;;24.40;40.40;;;;;;5012151;28;20029;-55
2021/05/17 09:14:13;;;;;;;0.40;0.35;;;24.40;40.30;;;;;;5004841;28;20401;-57
2021/05/17 09:16:55;;;;;;;0.63;0.40;;;24.60;40.30;;;;;;5012241;28;20120;-61
2021/05/17 09:19:24;;;;;;;0.52;0.40;;;24.70;40.20;;;;;;5011058;28;20030;-59
2021/05/17 09:22:09;;;;;;;1.10;0.43;;;24.70;40.10;;;;;;5013102;28;20041;-61
2021/05/17 09:24:44;;;;;;;0.95;0.43;;;24.80;40.00;;;;;;5010565;28;20018;-59
2021/05/17 09:27:16;;;;;;;1.13;0.45;;;24.90;40.00;;;;;;5012295;28;20037;-56
2021/05/17 09:29:46;;;;;;;0.63;0.30;;;24.90;39.90;;;;;;5012465;28;20026;-55
2021/05/17 09:32:27;;;;;;;0.52;0.30;;;24.90;39.70;;;;;;5010840;28;20438;-49
2021/05/17 09:35:15;;;;;;;1.35;0.50;;;25.00;39.60;;;;;;5010525;28;20033;-48
2021/05/17 09:37:56;;;;;;;0.70;0.30;;;25.00;39.50;;;;;;5011108;28;20030;-48
2021/05/17 09:40:25;;;;;;;0.88;0.40;;;25.00;39.40;;;;;;5012321;28;20030;-48
2021/05/17 09:43:08;;;;;;;0.68;0.40;;;25.00;39.30;;;;;;5012077;28;20083;-47
2021/05/17 09:45:37;;;;;;;0.90;0.50;;;25.00;39.10;;;;;;5007786;28;20025;-47
2021/05/17 09:48:21;;;;;;;0.88;0.40;;;25.00;39.10;;;;;;5004243;28;20048;-52
2021/05/17 09:51:01;;;;;;;0.47;0.30;;;25.00;39.00;;;;;;5009526;28;20025;-52
2021/05/17 09:53:34;;;;;;;1.40;0.50;;;25.00;39.00;;;;;;5011768;28;20292;-58
2021/05/17 09:56:05;;;;;;;0.93;0.55;;;25.00;39.00;;;;;;5008051;28;20029;-58
2021/05/17 09:58:38;;;;;;;1.05;0.40;;;25.00;39.00;;;;;;5011351;28;20112;-53
2021/05/17 10:01:12;;;;;;;1.50;0.40;;;25.00;39.00;;;;;;5008292;28;20034;-57
2021/05/17 10:03:49;;;;;;;0.73;0.45;;;25.00;39.10;;;;;;5012076;28;20026;-54
2021/05/17 10:06:20;;;;;;;0.90;0.40;;;25.00;39.10;;;;;;5011107;28;20034;-49
2021/05/17 10:08:46;;;;;;;1.08;0.60;;;25.00;39.10;;;;;;5010345;28;20025;-54
2021/05/17 10:11:12;;;;;;;0.77;0.40;;;25.10;39.10;;;;;;5011280;28;20080;-56
2021/05/17 10:13:39;;;;;;;1.70;0.40;;;25.10;39.10;;;;;;5011021;28;20030;-51
2021/05/17 10:16:08;;;;;;;0.75;0.35;;;25.10;39.10;;;;;;5007451;28;20049;-53
2021/05/17 10:18:35;;;;;;;0.40;0.20;;;25.10;39.10;;;;;;5013618;28;20529;-49
2021/05/17 10:21:06;;;;;;;0.95;0.25;;;25.10;39.00;;;;;;5010480;28;20034;-55
2021/05/17 10:23:32;;;;;;;0.45;0.30;;;25.10;39.00;;;;;;5011921;28;20040;-57
2021/05/17 10:26:16;;;;;;;1.13;0.40;;;25.10;38.90;;;;;;5012812;28;20087;-54
2021/05/17 10:28:52;;;;;;;0.30;0.30;;;25.10;38.80;;;;;;5012737;28;20366;-55
2021/05/17 10:31:20;;;;;;;1.75;0.47;;;25.10;38.80;;;;;;5012417;28;20315;-52
2021/05/17 10:34:15;;;;;;;0.75;0.40;;;25.10;38.70;;;;;;5013707;28;20033;-54
2021/05/17 10:36:47;;;;;;;;;;;25.10;38.50;;;;;;4995792;28;20042;-59
2021/05/17 10:39:13;;;;;;;0.45;0.25;;;25.10;38.60;;;;;;5010595;28;19928;-58
2021/05/17 10:43:05;;;;;;;0.20;0.20;;;25.10;38.60;;;;;;5010763;28;20049;-56
2021/05/17 10:47:45;;;;;;;0.55;0.30;;;25.10;38.30;;;;;;5007959;28;20042;-58
2021/05/17 10:50:14;;;;;;;0.82;0.30;;;25.10;38.20;;;;;;5003267;28;20025;-55
2021/05/17 10:52:40;;;;;;;0.40;0.30;;;25.10;38.10;;;;;;5009738;28;20026;-53
2021/05/17 10:55:10;;;;;;;0.55;0.40;;;25.10;38.10;;;;;;5013033;28;20034;-58
2021/05/17 10:57:57;;;;;;;0.73;0.35;;;25.10;38.10;;;;;;5011679;28;20045;-54
2021/05/17 11:00:26;;;;;;;0.52;0.30;;;25.10;38.00;;;;;;5008651;28;20044;-54
2021/05/17 11:03:24;;;;;;;0.50;0.30;;;25.00;38.00;;;;;;5012093;28;20033;-58
2021/05/17 11:05:54;;;;;;;0.60;0.20;;;25.10;38.10;;;;;;5015105;28;20418;-57
2021/05/17 11:08:20;;;;;;;0.85;0.28;;;25.00;38.10;;;;;;5015289;28;20033;-57
2021/05/17 11:10:54;;;;;;;0.65;0.40;;;25.00;38.10;;;;;;5014548;28;20425;-57
2021/05/17 11:13:29;;;;;;;0.60;0.30;;;25.00;38.20;;;;;;5014334;28;20528;-60
2021/05/17 11:16:03;;;;;;;0.50;0.40;;;25.00;38.30;;;;;;5013272;28;20034;-55
2021/05/17 11:18:40;;;;;;;1.05;0.35;;;24.90;38.40;;;;;;5012982;28;20376;-58
2021/05/17 11:21:12;;;;;;;0.40;0.30;;;25.00;38.50;;;;;;5012211;28;20057;-57
2021/05/17 11:23:41;;;;;;;0.52;0.30;;;24.90;38.60;;;;;;5014882;28;20022;-58
2021/05/17 11:26:12;;;;;;;0.73;0.30;;;24.90;38.70;;;;;;5014196;28;20069;-57
2021/05/17 11:28:38;;;;;;;0.30;0.28;;;24.90;38.70;;;;;;5011661;28;20038;-56
2021/05/17 11:31:05;;;;;;;0.70;0.40;;;24.90;38.80;;;;;;5013721;28;20030;-56
2021/05/17 11:33:56;;;;;;;0.93;0.40;;;24.80;38.80;;;;;;5014520;28;20026;-56
2021/05/17 11:36:22;;;;;;;0.75;0.47;;;24.90;38.90;;;;;;5012230;28;20353;-57
2021/05/17 11:39:10;;;;;;;1.23;0.50;;;24.80;39.60;;;;;;5014312;28;20045;-56
2021/05/17 11:41:38;;;;;;;0.45;0.30;;;24.90;39.10;;;;;;5012984;28;20038;-59
2021/05/17 11:44:09;;;;;;;0.43;0.43;;;24.90;39.20;;;;;;5013708;28;20030;-60
2021/05/17 11:46:46;;;;;;;0.60;0.50;;;24.90;39.40;;;;;;5012476;28;20504;-58
2021/05/17 11:49:15;;;;;;;0.40;0.32;;;24.90;39.50;;;;;;5013993;28;20045;-60
2021/05/17 11:51:44;;;;;;;0.45;0.30;;;24.90;39.50;;;;;;5009372;28;20473;-55
2021/05/17 11:54:11;;;;;;;0.95;0.43;;;24.90;39.60;;;;;;5012503;28;20044;-59
2021/05/17 11:56:40;;;;;;;1.40;0.52;;;24.90;39.60;;;;;;5013095;28;20457;-58
2021/05/17 11:59:07;;;;;;;0.75;0.35;;;25.00;39.60;;;;;;5010459;28;20315;-55
2021/05/17 12:01:34;;;;;;;1.17;0.40;;;25.00;39.60;;;;;;5012281;28;20041;-59
2021/05/17 12:04:18;;;;;;;0.52;0.40;;;25.00;39.60;;;;;;5013836;28;20034;-55
2021/05/17 12:06:47;;;;;;;0.57;0.30;;;25.10;39.60;;;;;;4996336;28;20032;-56
2021/05/17 12:09:28;;;;;;;0.38;0.30;;;25.10;39.70;;;;;;5014380;28;20041;-58
2021/05/17 12:11:54;;;;;;;1.25;0.30;;;25.10;39.60;;;;;;5014920;28;20030;-56
2021/05/17 12:14:21;;;;;;;0.57;0.30;;;25.10;39.60;;;;;;5013441;28;20113;-51
2021/05/17 12:17:16;;;;;;;0.52;0.40;;;25.20;39.80;;;;;;5014047;28;20037;-56
2021/05/17 12:19:45;;;;;;;0.45;0.40;;;25.30;39.90;;;;;;5014959;28;20059;-55
2021/05/17 12:22:12;;;;;;;0.50;0.40;;;25.30;39.90;;;;;;5012792;28;20611;-53
2021/05/17 12:24:39;;;;;;;1.10;0.50;;;25.40;40.00;;;;;;5015205;28;20029;-48
2021/05/17 12:27:08;;;;;;;1.95;0.63;;;25.40;40.20;;;;;;5014539;28;20096;-57
2021/05/17 12:29:55;;;;;;;1.10;0.40;;;25.40;40.40;;;;;;5013248;28;20458;-55
2021/05/17 12:32:25;;;;;;;1.27;0.40;;;25.50;40.30;;;;;;5009686;28;20033;-55
2021/05/17 12:34:57;;;;;;;2.08;0.50;;;25.50;40.10;;;;;;5015291;28;20049;-50
2021/05/17 12:37:25;;;;;;;0.73;0.30;;;25.50;39.90;;;;;;5014201;28;20034;-54
2021/05/17 12:40:28;;;;;;;1.55;0.40;;;25.50;39.80;;;;;;5013480;28;20368;-57
2021/05/17 12:43:18;;;;;;;0.57;0.25;;;25.50;39.50;;;;;;5010872;28;20465;-56
2021/05/17 12:45:47;;;;;;;0.85;0.40;;;25.40;39.40;;;;;;5006162;28;20030;-53
2021/05/17 12:48:32;;;;;;;0.47;0.30;;;25.40;39.30;;;;;;5014272;28;20038;-56
2021/05/17 12:51:22;;;;;;;1.20;0.43;;;25.40;39.20;;;;;;5013301;28;20365;-58
2021/05/17 12:53:50;;;;;;;1.13;0.30;;;25.40;39.00;;;;;;5014026;28;20030;-59
2021/05/17 12:56:35;;;;;;;1.67;0.20;;;25.30;39.00;;;;;;5014425;28;20034;-54
2021/05/17 12:59:13;;;;;;;0.73;0.35;;;25.30;39.40;;;;;;5022261;28;20061;-56
2021/05/17 13:01:41;;;;;;;0.30;0.10;;;25.30;38.70;;;;;;5012482;28;20359;-51
2021/05/17 13:04:08;;;;;;;0.68;0.38;;;25.30;38.60;;;;;;5014129;28;20400;-56
2021/05/17 13:06:34;;;;;;;0.32;0.20;;;25.30;38.60;;;;;;5013526;28;20053;-54
2021/05/17 13:09:02;;;;;;;0.28;0.20;;;25.20;38.40;;;;;;5012906;28;20496;-57
2021/05/17 13:11:30;;;;;;;0.65;0.40;;;25.20;38.30;;;;;;5011758;28;20073;-54
2021/05/17 13:13:59;;;;;;;0.47;0.30;;;25.20;38.30;;;;;;5009466;28;20168;-57
2021/05/17 13:16:34;;;;;;;0.30;0.30;;;25.20;38.30;;;;;;5010402;28;20057;-54
2021/05/17 13:33:00;;;;;;;0.20;0.20;;;25.10;38.40;;;;;;5013374;28;20571;-53
2021/05/17 13:35:27;;;;;;;0.43;0.20;;;25.10;38.40;;;;;;5013016;28;20496;-57